West Van Lear, KY (41268)

5:08 PM EDT on July 25, 2014 (GMT -0400)
Paintsville, KY (KKYPAINT2) Elev 620 ft | 37.82 °N, 82.82 °W | Change Station

Current weather conditions updated 10 minutes ago

Clear
Clear
80.0 °F
Feels Like 81 °F
N
5.0
Wind Variable Wind from SSW
Gusts 5.0 mph

Tomorrow is forecast to be Much Warmer than today. Showers and thunderstorms late tomorrow night.

Today
High -- | Low -- °F
--% Chance of Precip.
Yesterday
High -- | Low -- °F
Precip. -- in
6:28 AM 8:46 PM
Waning Crescent, 1% visible
Pressure 30.06 in
Visibility 10.0 miles
Clouds Mostly Cloudy 4400 ft
Heat Index 81 °F
Dew Point 59 °F
Humidity 49%
Rainfall 0.00 in
Snow Depth Not available.
UV 4.3 out of 12
Pollen 3.80 out of 12
Air Quality Not available.
Flu Activity Not available.
METAR KSJS 252055Z AUTO 00000KT 10SM BKN044 24/16 A3006 RMK AO2 T02390155

More Conditions Fewer Conditions

Pressure 30.06 in
Visibility 10.0 miles
Clouds Mostly Cloudy 4400 ft
Heat Index 81 °F
Dew Point 59 °F
Humidity 49%
Rainfall 0.00 in
Snow Depth Not available.
UV 4.3 out of 12
Pollen 3.80 out of 12
Air Quality Not available.
Flu Activity Not available.
METAR KSJS 252055Z AUTO 00000KT 10SM BKN044 24/16 A3006 RMK AO2 T02390155

More Conditions Fewer Conditions

10-Day Weather Forecast

Almanac

Astronomy

Jul. 25, 2014 Rise Set
Actual Time 6:28 AM EDT 8:46 PM EDT
Civil Twilight 5:59 AM EDT 9:15 PM EDT
Nautical Twilight 5:22 AM EDT 9:52 PM EDT
Astronomical Twilight 4:42 AM EDT 10:32 PM EDT
Moon 5:26 AM EDT 7:43 PM EDT
Length of Visible Light 15h 16m
Length of Day
14h 17m
Tomorrow will be 1m 38s shorter.
Waning Crescent, 1% of the Moon is Illuminated
Today
Waning Crescent
Jul 26
New
Aug 3
First Quarter
Aug 10
Full
Aug 17
Last Quarter

Today's Extremes

State Highs State Lows

Community

WunderPhotos

Upload Photos

1,737,402 photos uploaded!

Nearby

Snow Depth

Station Depth Elevation
No new snow has been reported.

Earthquake Activity

City Distance Mag. Time & Date
No recent earthquake activity has been reported nearby.
Minimum magnitude displayed is 2.5.

Coastal Water Temperatures

Place Temperature
No Stations Reporting

Nearby Weather Stations

Station Location Temp. Heat Index Dew Point Humidity Wind Precip. Elev Updated Type
Paintsville, KY, Paintsville, KY 80.0 °F 81 °F 59 °F 49% SSW  at  5.0 mph 0.00 in / hr 620 ft 4:57 PM EDT Normal
Middle Creek Battlefield Area, Prestonsburg, KY 77.9 °F 79 °F 61 °F 57% North  at  0.0 mph 0.00 in / hr 728 ft 5:08 PM EDT Rapid Fire
Middle Creek VFD Station 2, Prestonsburg, KY 78.9 °F 81 °F 66 °F 65% North  at  0.0 mph - / hr 689 ft 4:57 PM EDT Normal

Show More Stations Show Fewer Stations